Latest Coastal Weather Observations for Samuel Hill

IDQ60701

Issued at 3:15 pm EST Monday 24 November 2014 (issued every 10 minutes, with the page automatically refreshed every 10 minutes)

About coastal observations | Map of coastal stations | Coastal observations for QLD | Marine services | Other Formats
Station Details ID: 033308 Name: SAMUEL HILL AERO Lat: -22.74 Lon: 150.66 Height: 31.0 m
Data from the previous 72 hours. | See also: Recent months at Samuel Hill
Date/Time
EST
Temp

°C
Wind Pressure Rain
since 9am
mm
Weather Cloud Vis
km
Sea
Height
m
Swell
Dir
 
Speed
knots
Gust
knots
hPa Trend Height
m
Period
s
Dir
24/03:00pm 28.3 ENE 8 13 1012.8 - 0.0 - Cloudy 10 - - - -
24/02:30pm 29.2 E 9 13 1013.2 - 0.0 - Partly cloudy 10 - - - -
24/02:00pm 29.4 ENE 9 15 1013.5 - 0.0 - Partly cloudy 10 - - - -
24/01:30pm 31.1 NE 9 15 1013.7 - 0.0 - Partly cloudy 10 - - - -
24/01:00pm 30.3 ENE 12 16 1014.0 - 0.0 - Partly cloudy 10 - - - -
24/12:30pm 30.6 NNE 9 13 1014.4 - 0.0 - Partly cloudy 10 - - - -
24/12:00pm 30.8 ENE 10 15 1014.7 - 0.0 - Mostly clear 10 - - - -
24/11:30am 29.3 ENE 9 16 1015.2 - 0.0 - Partly cloudy 10 - - - -
24/11:00am 30.2 E 11 17 1015.5 - 0.0 - Partly cloudy 10 - - - -
24/10:30am 29.7 NE 9 14 1015.8 - 0.0 - Partly cloudy 10 - - - -
24/10:00am 28.0 NE 9 13 1016.4 - 0.0 - Partly cloudy 10 - - - -
24/09:30am 29.7 ENE 10 13 1016.3 - 0.0 - Partly cloudy 10 - - - -
24/09:00am 28.8 ENE 11 17 1016.4 - 0.0 - Partly cloudy 10 - - - -
24/08:30am 27.9 NNE 8 13 1016.4 - 0.0 - Partly cloudy 10 - - - -
24/08:00am 28.7 NE 7 13 1016.5 - 0.0 - Partly cloudy 10 - - - -
24/07:30am 25.5 E 4 7 1016.4 - 0.0 - - 10 - - - -
24/07:00am 23.0 SSW 1 4 1016.3 - 0.0 - Partly cloudy 10 - - - -
24/06:30am 20.9 CALM 0 0 1016.1 - 0.0 - Partly cloudy 10 - - - -
24/06:00am 19.1 CALM 0 0 1015.8 - 0.0 - - 10 - - - -
24/05:30am 18.2 CALM 0 0 1015.5 - 0.0 - Partly cloudy 10 - - - -
24/05:00am 17.4 CALM 0 0 1015.2 - 0.0 - Partly cloudy 10 - - - -
24/04:30am 18.0 CALM 0 0 1014.9 - 0.0 - Partly cloudy 10 - - - -
24/04:00am 17.6 CALM 0 0 1014.8 - 0.0 - Partly cloudy 10 - - - -
24/03:30am 17.8 CALM 0 0 1014.8 - 0.0 - Partly cloudy 10 - - - -
24/03:00am 16.6 CALM 0 0 1014.7 - 0.0 - - 10 - - - -
24/02:30am 16.6 CALM 0 0 1014.7 - 0.0 - - 10 - - - -
24/02:00am 17.1 CALM 0 0 1014.9 - 0.0 - - 10 - - - -
24/01:30am 17.5 WSW 1 5 1015.0 - 0.0 - Partly cloudy 10 - - - -
24/01:00am 16.8 CALM 0 0 1015.1 - 0.0 - - 10 - - - -
24/12:30am 17.0 CALM 0 0 1015.3 - 0.0 - - 10 - - - -
24/12:00am 17.4 CALM 0 0 1015.9 - 0.0 - Mostly clear 10 - - - -
 
Date/Time
EST
Temp

°C
Wind Pressure Rain
since 9am
mm
Weather Cloud Vis
km
Sea
Height
m
Swell
Dir
 
Speed
knots
Gust
knots
hPa Trend Height
m
Period
s
Dir
23/11:30pm 17.8 CALM 0 0 1016.1 - 0.0 - - 10 - - - -
23/11:00pm 17.8 CALM 0 0 1016.3 - 0.0 - Partly cloudy 10 - - - -
23/10:30pm 17.7 CALM 0 0 1016.5 - 0.0 - - 10 - - - -
23/10:00pm 18.0 CALM 0 0 1016.4 - 0.0 - - 10 - - - -
23/09:30pm 18.4 CALM 0 0 1016.1 - 0.0 - Partly cloudy 10 - - - -
23/09:00pm 19.2 CALM 0 0 1015.9 - 0.0 - Mostly clear 10 - - - -
23/08:30pm 19.3 CALM 0 0 1015.5 - 0.0 - Partly cloudy 10 - - - -
23/08:00pm 20.1 CALM 0 0 1015.2 - 0.0 - - 10 - - - -
23/07:30pm 21.6 CALM 0 0 1015.1 - 0.0 - - 10 - - - -
23/07:00pm 23.0 ENE 2 5 1014.6 - 0.0 - - 10 - - - -
23/06:30pm 24.5 ENE 2 5 1014.4 - 0.0 - - 10 - - - -
23/06:00pm 25.8 ENE 7 12 1014.2 - 0.0 - - 10 - - - -
23/05:30pm 26.9 E 8 13 1013.9 - 0.0 - - 10 - - - -
23/05:00pm 27.6 ENE 9 13 1013.9 - 0.0 - - 10 - - - -
23/04:30pm 28.4 ENE 9 14 1013.8 - 0.0 - - 10 - - - -
23/04:00pm 28.6 ENE 9 13 1013.8 - 0.0 - - 10 - - - -
23/03:30pm 29.9 ENE 9 15 1013.8 - 0.0 - - 10 - - - -
23/03:00pm 30.0 E 8 13 1013.8 - 0.0 - - 10 - - - -
23/02:30pm 29.8 E 9 16 1014.1 - 0.0 - - 10 - - - -
23/02:00pm 30.1 NE 9 12 1014.4 - 0.0 - Partly cloudy 10 - - - -
23/01:30pm 30.9 ENE 8 13 1014.6 - 0.0 - Partly cloudy 10 - - - -
23/01:00pm 30.8 ENE 7 15 1015.0 - 0.0 - Partly cloudy 10 - - - -
23/12:30pm 31.1 E 9 14 1015.3 - 0.0 - Partly cloudy 10 - - - -
23/12:00pm 30.7 ENE 9 14 1015.7 - 0.0 - - 10 - - - -
23/11:30am 30.2 NE 8 14 1016.2 - 0.0 - Partly cloudy 10 - - - -
23/11:00am 30.1 E 11 17 1016.4 - 0.0 - Partly cloudy 10 - - - -
23/10:30am 29.3 ENE 10 14 1016.7 - 0.0 - Partly cloudy 10 - - - -
23/10:00am 29.9 E 8 13 1016.8 - 0.0 - Partly cloudy 10 - - - -
23/09:30am 28.1 E 7 10 1016.8 - 0.0 - Partly cloudy 10 - - - -
23/09:00am 28.4 NNE 6 9 1016.8 - 0.0 - Partly cloudy 10 - - - -
23/08:30am 29.2 ENE 6 10 1016.7 - 0.0 - Partly cloudy 10 - - - -
23/08:00am 27.7 N 5 7 1016.7 - 0.0 - Partly cloudy 10 - - - -
23/07:30am 26.8 ENE 3 7 1016.7 - 0.0 - - 10 - - - -
23/07:00am 25.0 CALM 0 4 1016.5 - 0.0 - - 10 - - - -
23/06:30am 23.4 CALM 0 0 1016.2 - 0.0 - - 10 - - - -
23/06:00am 20.9 CALM 0 0 1015.7 - 0.0 - Mostly clear 10 - - - -
23/05:30am 17.9 CALM 0 0 1015.3 - 0.0 - - 10 - - - -
23/05:00am 17.7 CALM 0 0 1014.9 - 0.0 - - 8 - - - -
23/04:43am 17.8 CALM 0 0 1014.7 - 0.0 - - 10 - - - -
23/04:30am 18.0 CALM 0 0 1014.7 - 0.0 - - 7 - - - -
23/04:23am 18.4 CALM 0 0 1014.7 - 0.0 - - 7 - - - -
23/04:00am 18.3 CALM 0 0 1014.5 - 0.0 - - 10 - - - -
23/03:30am 19.3 CALM 0 3 1014.5 - 0.0 - Partly cloudy 10 - - - -
23/03:00am 18.7 SSE 3 4 1014.6 - 0.0 - Mostly clear 10 - - - -
23/02:30am 19.2 SW 1 4 1014.5 - 0.0 - Partly cloudy 10 - - - -
23/02:00am 19.8 CALM 0 5 1014.4 - 0.0 - - 10 - - - -
23/01:30am 19.0 CALM 0 0 1014.2 - 0.0 - - 9 - - - -
23/01:05am 19.5 CALM 0 0 1014.5 - 0.0 - - 10 - - - -
23/01:00am 19.7 CALM 0 0 1014.5 - 0.0 - - 8 - - - -
23/12:46am 19.8 CALM 0 0 1014.7 - 0.0 - - 7 - - - -
23/12:30am 20.4 CALM 0 0 1015.0 - 0.0 - - 10 - - - -
23/12:00am 21.1 CALM 0 0 1015.2 - 0.0 - Mostly clear 10 - - - -
 
Date/Time
EST
Temp

°C
Wind Pressure Rain
since 9am
mm
Weather Cloud Vis
km
Sea
Height
m
Swell
Dir
 
Speed
knots
Gust
knots
hPa Trend Height
m
Period
s
Dir
22/11:30pm 21.1 CALM 0 0 1015.1 - 0.0 - - 10 - - - -
22/11:00pm 21.0 NNE 1 4 1015.3 - 0.0 - Partly cloudy 10 - - - -
22/10:30pm 21.7 CALM 0 0 1015.3 - 0.0 - - 10 - - - -
22/10:00pm 21.5 CALM 0 0 1015.4 - 0.0 - Partly cloudy 10 - - - -
22/09:30pm 21.8 CALM 0 0 1015.3 - 0.0 - Partly cloudy 10 - - - -
22/09:00pm 22.4 N 1 3 1015.1 - 0.0 - - 10 - - - -
22/08:30pm 22.5 CALM 0 0 1014.8 - 0.0 - - 10 - - - -
22/08:00pm 23.7 CALM 0 1 1014.6 - 0.0 - - 10 - - - -
22/07:30pm 24.6 NNE 3 4 1014.2 - 0.0 - - 10 - - - -
22/07:00pm 25.1 NNE 4 7 1013.8 - 0.0 - - 10 - - - -
22/06:30pm 25.7 NE 6 9 1013.6 - 0.0 - - 10 - - - -
22/06:00pm 26.7 NNE 7 10 1013.0 - 0.0 - - 10 - - - -
22/05:30pm 27.6 NNE 8 11 1012.6 - 0.0 - - 10 - - - -
22/05:00pm 28.6 N 9 15 1012.3 - 0.0 - - 10 - - - -
22/04:30pm 29.7 N 9 15 1012.0 - 0.0 - - 10 - - - -
22/04:00pm 30.2 NNE 9 15 1011.8 - 0.0 - - 10 - - - -
22/03:30pm 30.5 NNE 9 15 1011.8 - 0.0 - - 10 - - - -
22/03:00pm 31.3 N 10 15 1012.0 - 0.0 - Partly cloudy 10 - - - -
22/02:30pm 31.8 N 9 14 1012.2 - 0.0 - Partly cloudy 10 - - - -
22/02:00pm 30.6 N 8 12 1012.7 - 0.0 - Partly cloudy 10 - - - -
22/01:30pm 32.0 N 9 14 1013.0 - 0.0 - Partly cloudy 10 - - - -
22/01:00pm 30.7 N 8 11 1013.3 - 0.0 - Partly cloudy 10 - - - -
22/12:30pm 30.9 N 9 17 1013.7 - 0.0 - Partly cloudy 10 - - - -
22/12:00pm 30.6 N 11 16 1014.2 - 0.0 - Mostly clear 10 - - - -
22/11:30am 31.7 N 12 16 1014.5 - 0.0 - Partly cloudy 10 - - - -
22/11:00am 31.3 NNW 7 13 1014.7 - 0.0 - Partly cloudy 10 - - - -
22/10:30am 30.3 N 6 11 1015.1 - 0.0 - Partly cloudy 10 - - - -
22/10:00am 30.9 N 8 12 1015.5 - 0.0 - Partly cloudy 10 - - - -
22/09:30am 28.4 N 7 10 1015.8 - 0.0 - Partly cloudy 10 - - - -
22/09:00am 28.2 NNW 4 7 1015.9 - 0.0 - Partly cloudy 10 - - - -
22/08:30am 28.5 N 5 7 1016.0 - 0.0 - Partly cloudy 10 - - - -
22/08:00am 26.4 N 6 8 1016.2 - 0.0 - Partly cloudy 10 - - - -
22/07:30am 27.3 NW 2 6 1016.2 - 0.0 - Partly cloudy 10 - - - -
22/07:00am 25.9 CALM 0 3 1016.0 - 0.0 - - 10 - - - -
22/06:30am 23.9 SSE 1 4 1015.4 - 0.0 - - 10 - - - -
22/06:00am 21.5 CALM 0 0 1014.9 - 0.0 - - 10 - - - -
22/05:30am 19.1 CALM 0 0 1014.3 - 0.0 - Partly cloudy 10 - - - -
22/05:00am 18.8 CALM 0 0 1013.9 - 0.0 - - 10 - - - -
22/04:49am 18.9 CALM 0 0 1013.7 - 0.0 - - 9 - - - -
22/04:30am 19.0 CALM 0 0 1013.6 - 0.0 - - 7 - - - -
22/04:00am 19.9 CALM 0 0 1013.2 - 0.0 - - 9 - - - -
22/03:30am 19.4 CALM 0 0 1012.9 - 0.0 - Partly cloudy 10 - - - -
22/03:13am 19.7 CALM 0 0 1012.8 - 0.0 - Partly cloudy 9 - - - -
22/03:00am 19.8 CALM 0 0 1012.9 - 0.0 - - 6 - - - -
22/02:55am 20.2 CALM 0 0 1012.9 - 0.0 - - 7 - - - -
22/02:30am 20.5 CALM 0 0 1013.1 - 0.0 - Partly cloudy 10 - - - -
22/02:00am 20.4 CALM 0 0 1013.0 - 0.0 - Partly cloudy 10 - - - -
22/01:30am 20.9 CALM 0 0 1013.3 - 0.0 - - 9 - - - -
22/01:00am 21.5 N 3 4 1013.6 - 0.0 - - 10 - - - -
22/12:30am 23.0 NNW 2 3 1014.0 - 0.0 - - 10 - - - -
22/12:00am 23.3 N 3 4 1014.2 - 0.0 - - 10 - - - -
 
Date/Time
EST
Temp

°C
Wind Pressure Rain
since 9am
mm
Weather Cloud Vis
km
Sea
Height
m
Swell
Dir
 
Speed
knots
Gust
knots
hPa Trend Height
m
Period
s
Dir
21/11:30pm 23.4 N 3 4 1014.3 - 0.0 - - 10 - - - -
21/11:00pm 23.8 NNW 3 5 1014.6 - 0.0 - - 10 - - - -
21/10:30pm 24.1 N 4 6 1014.6 - 0.0 - - 10 - - - -
21/10:00pm 24.6 N 5 9 1014.5 - 0.0 - - 10 - - - -
21/09:30pm 24.5 NNE 5 7 1014.3 - 0.0 - Partly cloudy 10 - - - -
21/09:00pm 24.5 N 4 8 1014.2 - 0.0 - - 10 - - - -
21/08:30pm 24.5 NNE 4 7 1013.7 - 0.0 - - 10 - - - -
21/08:00pm 24.5 NNE 3 5 1013.6 - 0.0 - - 10 - - - -
21/07:30pm 24.8 NNE 5 6 1013.5 - 0.0 - - 10 - - - -
21/07:00pm 25.2 NNE 5 8 1013.2 - 0.0 - - 10 - - - -
21/06:30pm 25.7 NNE 7 11 1013.0 - 0.0 - - 10 - - - -
21/06:00pm 26.7 NNE 9 13 1012.6 - 0.0 - - 10 - - - -
21/05:30pm 28.0 NNE 9 14 1012.1 - 0.0 - - 10 - - - -
21/05:00pm 28.4 NNE 9 13 1011.9 - 0.0 - Partly cloudy 10 - - - -
21/04:30pm 29.1 NNE 10 17 1011.8 - 0.0 - - 10 - - - -
21/04:00pm 29.3 NNE 11 16 1011.6 - 0.0 - Partly cloudy 10 - - - -
21/03:30pm 30.1 NNE 12 17 1011.6 - 0.0 - Partly cloudy 10 - - - -

Other Formats:

Comma delimited format used in spreadsheet applications
http://www.bom.gov.au/fwo/IDQ60701/IDQ60701.94370.axf

JavaScript Object Notation format (JSON) in row-major order
http://www.bom.gov.au/fwo/IDQ60701/IDQ60701.94370.json